Etusivu
METAR-TAF:

METAR-TAF

Lentoasemat :

Sarh, Tšad

Leveyspiiri: 09-09N, Pituuspiiri: 018-23E, korkeus merenpinnasta: 365 m

Tämänhetkinen sää

Tämä raportti tehtiin 43 minuuttia sitten, kello 07.00 UTC
Tuuli 6 kn lännestä/lounaasta
Lämpötila 27°C
Kosteus 84%
Ilmanpaine 1016 hPa
Näkyvyys 10 km tai enemmän
Muutamia pilviä 5000 ft:n korkeudessa, Cumulonimbus.

METAR: FTTA 140700Z 24006KT 9999 FEW050CB 27/24 Q1016

Aika: 08:43 (07:43 UTC)


TAF: puuttuu

Säähavainnot ja -ennusteet yli 4000 lentoasemalta (METAR- ja TAF-raportit).

Käytössä olevat sääasemat on merkitty karttaan keltaisilla ja punaisilla pisteillä.

Aseta hiiri pisteen päälle nähdäksesi sääaseman nimen.

Klikkaa sitten nähdäksesi säähavainnot ja -ennusteet.

Kartan vaihtaminen: klikkaa mustalla rastilla varustettuja vihreitä pisteitä, niin voit zoomata sisään; viivalla varustettua vihreää pistettä, niin voit zoomata ulos tai vihreitä nuolia, niin pääset viereisille kartoille.


METAR-TAF: